createdAt,value
2023-01-29T00:01:40.200Z,30.50
2023-01-29T00:04:42.808Z,35.75
2023-01-29T00:07:44.922Z,34.13
2023-01-29T00:10:47.314Z,31.73
2023-01-29T00:13:50.599Z,33.90
2023-01-29T00:16:53.790Z,30.10
2023-01-29T00:19:55.985Z,27.35
2023-01-29T00:22:58.200Z,30.87
2023-01-29T00:26:00.663Z,29.95
2023-01-29T00:29:04.270Z,27.13
2023-01-29T00:32:06.862Z,33.63
2023-01-29T00:35:09.673Z,30.33
2023-01-29T00:38:11.720Z,33.20
2023-01-29T00:41:34.581Z,35.50
2023-01-29T00:44:55.505Z,34.05
2023-01-29T00:47:57.478Z,30.15
2023-01-29T00:51:01.641Z,36.55
2023-01-29T00:54:07.084Z,31.23
2023-01-29T00:57:09.025Z,35.85
2023-01-29T01:00:14.611Z,35.83
2023-01-29T01:03:18.280Z,33.50
2023-01-29T01:06:20.421Z,38.28
2023-01-29T01:09:42.433Z,35.07
2023-01-29T01:12:44.725Z,31.98
2023-01-29T01:15:46.916Z,34.25
2023-01-29T01:18:49.069Z,29.88
2023-01-29T01:21:51.536Z,32.15
2023-01-29T01:24:53.692Z,32.07
2023-01-29T01:27:57.587Z,33.88
2023-01-29T01:31:08.679Z,32.67
2023-01-29T01:34:10.795Z,32.35
2023-01-29T01:37:12.905Z,33.28
2023-01-29T01:40:18.691Z,35.80
2023-01-29T01:43:20.942Z,35.33
2023-01-29T01:46:24.170Z,35.22
2023-01-29T01:49:26.886Z,37.28
2023-01-29T01:52:32.837Z,35.63
2023-01-29T01:55:42.346Z,29.20
2023-01-29T01:58:51.173Z,32.88
2023-01-29T02:01:54.677Z,35.05
2023-01-29T02:05:15.542Z,34.00
2023-01-29T02:08:53.516Z,32.42
2023-01-29T02:11:58.408Z,32.00
2023-01-29T02:15:03.684Z,35.88
2023-01-29T02:18:06.635Z,34.92
2023-01-29T02:21:25.425Z,32.75
2023-01-29T02:24:27.477Z,31.88
2023-01-29T02:27:49.215Z,33.30
2023-01-29T02:31:10.088Z,32.10
2023-01-29T02:34:54.436Z,32.17
2023-01-29T02:38:24.570Z,35.63
2023-01-29T02:41:42.175Z,28.13
2023-01-29T02:45:14.681Z,31.43
2023-01-29T02:48:23.231Z,32.95
2023-01-29T02:51:34.486Z,31.90
2023-01-29T02:54:51.098Z,31.13
2023-01-29T02:58:00.100Z,31.98
2023-01-29T03:01:13.952Z,30.30
2023-01-29T03:04:29.970Z,32.33
2023-01-29T03:07:46.831Z,34.47
2023-01-29T03:10:56.071Z,33.58
2023-01-29T03:14:06.625Z,35.30
2023-01-29T03:17:10.574Z,30.93
2023-01-29T03:20:19.582Z,31.35
2023-01-29T03:23:39.183Z,28.27
2023-01-29T03:27:02.618Z,29.65
2023-01-29T03:30:27.032Z,28.98
2023-01-29T03:33:35.750Z,28.63
2023-01-29T03:36:51.189Z,31.00
2023-01-29T03:39:53.603Z,32.25
2023-01-29T03:43:14.027Z,34.10
2023-01-29T03:46:35.677Z,27.38
2023-01-29T03:49:46.365Z,36.03
2023-01-29T03:52:51.188Z,32.47
2023-01-29T03:55:59.830Z,27.52
2023-01-29T03:59:30.795Z,32.30
2023-01-29T04:02:42.825Z,24.55
2023-01-29T04:06:12.390Z,27.00
2023-01-29T04:09:22.637Z,29.83
2023-01-29T04:12:30.748Z,28.42
2023-01-29T04:15:41.068Z,28.55
2023-01-29T04:18:47.113Z,28.50
2023-01-29T04:21:53.317Z,27.57
2023-01-29T04:24:55.615Z,21.73
2023-01-29T04:28:23.479Z,25.58
2023-01-29T04:31:33.866Z,24.70
2023-01-29T04:35:01.771Z,21.83
2023-01-29T04:38:17.168Z,21.83
2023-01-29T04:41:27.743Z,25.70
2023-01-29T04:45:06.914Z,24.17
2023-01-29T04:48:31.110Z,20.77
2023-01-29T04:51:55.945Z,20.00
2023-01-29T04:55:17.627Z,14.50
2023-01-29T04:58:41.064Z,21.40
2023-01-29T05:01:44.857Z,19.42
2023-01-29T05:04:48.381Z,20.58
2023-01-29T05:07:50.780Z,19.38
2023-01-29T05:10:55.256Z,20.07
2023-01-29T05:13:58.341Z,22.77
2023-01-29T05:17:03.321Z,19.20
2023-01-29T05:20:06.237Z,19.70
2023-01-29T05:23:26.809Z,16.65
2023-01-29T05:26:47.227Z,19.07
2023-01-29T05:29:49.345Z,17.92
2023-01-29T05:32:51.595Z,20.50
2023-01-29T05:35:55.490Z,25.40
2023-01-29T05:38:58.002Z,20.00
2023-01-29T05:42:00.007Z,15.30
2023-01-29T05:45:01.891Z,22.55
2023-01-29T05:48:03.995Z,16.02
2023-01-29T05:51:07.092Z,18.73
2023-01-29T05:54:12.589Z,18.98
2023-01-29T05:57:15.372Z,19.37
2023-01-29T06:00:17.825Z,22.02
2023-01-29T06:03:21.109Z,21.88
2023-01-29T06:06:22.975Z,18.92
2023-01-29T06:09:25.011Z,19.35
2023-01-29T06:12:27.839Z,21.17
2023-01-29T06:15:29.718Z,24.88
2023-01-29T06:18:31.619Z,18.38
2023-01-29T06:21:34.118Z,22.85
2023-01-29T06:24:36.705Z,27.23
2023-01-29T06:27:39.025Z,16.53
2023-01-29T06:30:41.355Z,17.35
2023-01-29T06:33:43.444Z,13.85
2023-01-29T06:36:45.413Z,18.70
2023-01-29T06:39:47.430Z,16.17
2023-01-29T06:42:49.418Z,22.00
2023-01-29T06:45:55.024Z,18.05
2023-01-29T06:49:01.153Z,19.92
2023-01-29T06:52:03.470Z,18.55
2023-01-29T06:55:06.186Z,15.82
2023-01-29T06:58:10.036Z,23.53
2023-01-29T07:01:29.073Z,19.77
2023-01-29T07:04:35.708Z,18.55
2023-01-29T07:07:37.827Z,20.35
2023-01-29T07:10:41.759Z,14.75
2023-01-29T07:13:44.168Z,21.07
2023-01-29T07:16:46.477Z,17.95
2023-01-29T07:19:48.494Z,21.83
2023-01-29T07:22:50.845Z,18.42
2023-01-29T07:25:53.008Z,19.80
2023-01-29T07:28:55.393Z,15.00
2023-01-29T07:31:57.294Z,10.57
2023-01-29T07:34:59.500Z,19.85
2023-01-29T07:38:01.523Z,19.75
2023-01-29T07:41:03.699Z,17.55
2023-01-29T07:44:05.832Z,8.60
2023-01-29T07:47:09.492Z,17.85
2023-01-29T07:50:14.452Z,14.68
2023-01-29T07:53:17.268Z,16.08
2023-01-29T07:56:19.357Z,16.95
2023-01-29T07:59:22.056Z,18.83
2023-01-29T08:02:24.360Z,16.63
2023-01-29T08:05:26.538Z,17.90
2023-01-29T08:08:28.627Z,17.00
2023-01-29T08:11:30.878Z,16.70
2023-01-29T08:14:33.145Z,16.33
2023-01-29T08:17:36.028Z,15.18
2023-01-29T08:20:47.064Z,15.15
2023-01-29T08:23:49.336Z,15.18
2023-01-29T08:26:51.319Z,15.30
2023-01-29T08:29:53.454Z,18.87
2023-01-29T08:32:55.596Z,12.40
2023-01-29T08:36:00.494Z,12.35
2023-01-29T08:39:02.929Z,16.30
2023-01-29T08:42:05.438Z,11.38
2023-01-29T08:45:08.005Z,12.40
2023-01-29T08:48:10.619Z,15.18
2023-01-29T08:51:13.126Z,13.68
2023-01-29T08:54:17.262Z,12.50
2023-01-29T08:57:19.611Z,14.70
2023-01-29T09:00:22.282Z,11.83
2023-01-29T09:03:25.236Z,17.17
2023-01-29T09:06:27.377Z,13.10
2023-01-29T09:09:29.785Z,13.88
2023-01-29T09:12:32.193Z,14.43
2023-01-29T09:15:34.388Z,12.07
2023-01-29T09:18:37.226Z,10.82
2023-01-29T09:21:39.271Z,10.98
2023-01-29T09:24:41.528Z,13.70
2023-01-29T09:27:45.934Z,14.75
2023-01-29T09:30:49.367Z,5.43
2023-01-29T09:33:53.897Z,10.60
2023-01-29T09:36:56.019Z,11.35
2023-01-29T09:39:58.133Z,11.43
2023-01-29T09:43:09.640Z,15.68
2023-01-29T09:46:20.594Z,12.33
2023-01-29T09:49:41.827Z,13.27
2023-01-29T09:52:59.767Z,13.60
2023-01-29T09:56:06.251Z,14.48
2023-01-29T09:59:16.279Z,15.15
2023-01-29T10:02:41.209Z,11.20
2023-01-29T10:06:04.280Z,14.68
2023-01-29T10:09:43.844Z,13.15
2023-01-29T10:13:13.730Z,14.52
2023-01-29T10:16:31.634Z,12.75
2023-01-29T10:19:52.346Z,11.87
2023-01-29T10:23:21.279Z,13.35
2023-01-29T10:26:27.610Z,13.05
2023-01-29T10:29:31.632Z,12.48
2023-01-29T10:32:37.319Z,11.85
2023-01-29T10:35:46.587Z,10.27
2023-01-29T10:38:51.194Z,7.53
2023-01-29T10:42:30.383Z,11.23
2023-01-29T10:45:43.665Z,9.98
2023-01-29T10:48:55.226Z,5.05
2023-01-29T10:52:08.631Z,10.53
2023-01-29T10:55:29.515Z,10.60
2023-01-29T10:58:42.197Z,8.43
2023-01-29T11:01:44.420Z,8.68
2023-01-29T11:04:46.766Z,12.52
2023-01-29T11:07:55.164Z,8.37
2023-01-29T11:11:03.361Z,8.38
2023-01-29T11:14:10.537Z,10.13
2023-01-29T11:17:23.491Z,11.48
2023-01-29T11:20:28.456Z,13.90
2023-01-29T11:23:35.123Z,10.57
2023-01-29T11:26:42.376Z,10.73
2023-01-29T11:29:48.625Z,10.07
2023-01-29T11:32:59.371Z,9.98
2023-01-29T11:36:21.094Z,10.82
2023-01-29T11:39:24.654Z,8.70
2023-01-29T11:42:32.006Z,10.80
2023-01-29T11:45:38.687Z,11.23
2023-01-29T11:48:51.577Z,10.43
2023-01-29T11:51:56.111Z,8.57
2023-01-29T11:55:05.774Z,9.80
2023-01-29T11:58:30.025Z,9.57
2023-01-29T12:01:41.340Z,8.65
2023-01-29T12:04:43.744Z,10.90
2023-01-29T12:07:51.937Z,10.13
2023-01-29T12:11:09.151Z,10.80
2023-01-29T12:14:34.443Z,9.90
2023-01-29T12:17:39.608Z,10.45
2023-01-29T12:20:47.933Z,9.38
2023-01-29T12:24:03.572Z,10.02
2023-01-29T12:27:18.365Z,10.73
2023-01-29T12:30:35.509Z,9.55
2023-01-29T12:33:57.097Z,9.27
2023-01-29T12:37:26.136Z,9.70
2023-01-29T12:41:11.801Z,7.65
2023-01-29T12:44:21.087Z,11.03
2023-01-29T12:47:23.346Z,10.60
2023-01-29T12:50:33.227Z,9.10
2023-01-29T12:53:41.812Z,5.88
2023-01-29T12:56:56.483Z,8.45
2023-01-29T13:00:22.619Z,8.67
2023-01-29T13:03:53.747Z,9.52
2023-01-29T13:07:07.068Z,7.47
2023-01-29T13:10:17.137Z,9.85
2023-01-29T13:14:00.239Z,5.78
2023-01-29T13:17:14.132Z,5.47
2023-01-29T13:20:24.445Z,6.93
2023-01-29T13:23:35.067Z,7.50
2023-01-29T13:26:38.121Z,5.85
2023-01-29T13:29:40.347Z,8.27
2023-01-29T13:32:42.496Z,7.63
2023-01-29T13:35:46.440Z,8.68
2023-01-29T13:39:00.519Z,8.23
2023-01-29T13:42:20.478Z,8.50
2023-01-29T13:45:37.101Z,8.65
2023-01-29T13:48:46.853Z,5.53
2023-01-29T13:51:49.001Z,10.48
2023-01-29T13:54:57.612Z,8.60
2023-01-29T13:58:05.685Z,7.60
2023-01-29T14:01:08.366Z,10.55
2023-01-29T14:04:19.662Z,8.17
2023-01-29T14:07:50.147Z,8.35
2023-01-29T14:11:15.493Z,10.38
2023-01-29T14:14:49.408Z,7.72
2023-01-29T14:18:22.300Z,7.85
2023-01-29T14:21:29.851Z,7.87
2023-01-29T14:24:35.899Z,8.90
2023-01-29T14:27:40.190Z,8.80
2023-01-29T14:30:48.834Z,8.60
2023-01-29T14:33:53.796Z,10.10
2023-01-29T14:37:21.337Z,8.30
2023-01-29T14:40:35.355Z,8.88
2023-01-29T14:43:37.686Z,7.53
2023-01-29T14:46:44.141Z,8.73
2023-01-29T14:49:57.351Z,10.13
2023-01-29T14:53:06.032Z,9.60
2023-01-29T14:56:22.289Z,9.07
2023-01-29T14:59:37.876Z,10.10
2023-01-29T15:02:45.602Z,8.02
2023-01-29T15:05:49.764Z,8.05
2023-01-29T15:09:12.466Z,9.40
2023-01-29T15:12:34.423Z,8.43
2023-01-29T15:15:57.048Z,10.27
2023-01-29T15:19:15.152Z,11.75
2023-01-29T15:22:20.247Z,11.45
2023-01-29T15:25:22.904Z,11.43
2023-01-29T15:28:25.368Z,8.85
2023-01-29T15:31:28.672Z,11.63
2023-01-29T15:34:30.947Z,11.23
2023-01-29T15:37:34.733Z,10.25
2023-01-29T15:40:37.109Z,12.10
2023-01-29T15:43:44.752Z,9.45
2023-01-29T15:46:54.822Z,12.40
2023-01-29T15:49:57.846Z,12.00
2023-01-29T15:53:07.157Z,7.35
2023-01-29T15:56:17.035Z,12.73
2023-01-29T15:59:41.914Z,11.50
2023-01-29T16:02:44.309Z,10.02
2023-01-29T16:05:46.783Z,8.70
2023-01-29T16:08:54.626Z,12.63
2023-01-29T16:12:00.961Z,12.33
2023-01-29T16:15:05.433Z,13.50
2023-01-29T16:18:35.956Z,13.18
2023-01-29T16:21:44.464Z,13.82
2023-01-29T16:24:47.945Z,14.30
2023-01-29T16:27:51.704Z,15.07
2023-01-29T16:31:02.601Z,11.70
2023-01-29T16:34:14.473Z,9.27
2023-01-29T16:37:24.609Z,14.02
2023-01-29T16:40:33.583Z,13.70
2023-01-29T16:43:42.212Z,12.17
2023-01-29T16:46:51.486Z,12.93
2023-01-29T16:50:00.712Z,14.02
2023-01-29T16:53:05.764Z,16.02
2023-01-29T16:56:09.019Z,10.50
2023-01-29T16:59:18.842Z,11.13
2023-01-29T17:02:33.471Z,16.25
2023-01-29T17:05:38.196Z,14.13
2023-01-29T17:08:44.542Z,12.90
2023-01-29T17:11:50.386Z,15.13
2023-01-29T17:14:58.469Z,11.83
2023-01-29T17:18:03.603Z,13.43
2023-01-29T17:21:08.161Z,14.43
2023-01-29T17:24:11.787Z,13.40
2023-01-29T17:27:23.463Z,18.27
2023-01-29T17:30:30.543Z,8.60
2023-01-29T17:33:32.989Z,14.57
2023-01-29T17:36:37.046Z,15.27
2023-01-29T17:39:39.949Z,15.38
2023-01-29T17:42:42.782Z,15.05
2023-01-29T17:45:45.125Z,15.27
2023-01-29T17:48:49.593Z,17.92
2023-01-29T17:51:53.281Z,22.60
2023-01-29T17:54:55.845Z,10.88
2023-01-29T17:57:59.140Z,17.13
2023-01-29T18:01:01.794Z,19.73
2023-01-29T18:04:04.257Z,18.75
2023-01-29T18:07:07.231Z,16.25
2023-01-29T18:10:21.698Z,16.83
2023-01-29T18:13:24.321Z,16.98
2023-01-29T18:16:26.595Z,15.97
2023-01-29T18:19:32.215Z,15.35
2023-01-29T18:22:34.517Z,15.02
2023-01-29T18:25:37.687Z,13.65
2023-01-29T18:28:43.537Z,13.27
2023-01-29T18:31:48.333Z,20.13
2023-01-29T18:34:50.614Z,16.45
2023-01-29T18:37:52.960Z,15.43
2023-01-29T18:41:04.210Z,16.65
2023-01-29T18:44:06.650Z,17.27
2023-01-29T18:47:08.734Z,18.40
2023-01-29T18:50:12.133Z,15.40
2023-01-29T18:53:17.173Z,15.68
2023-01-29T18:56:20.532Z,17.90
2023-01-29T18:59:23.082Z,17.38
2023-01-29T19:02:26.575Z,20.47
2023-01-29T19:05:29.244Z,19.33
2023-01-29T19:08:32.973Z,18.23
2023-01-29T19:11:35.223Z,9.48
2023-01-29T19:14:38.530Z,12.25
2023-01-29T19:17:41.195Z,13.17
2023-01-29T19:20:44.094Z,15.25
2023-01-29T19:23:46.885Z,12.57
2023-01-29T19:26:51.624Z,17.13
2023-01-29T19:29:55.962Z,13.57
2023-01-29T19:32:58.290Z,15.20
2023-01-29T19:36:01.637Z,15.23
2023-01-29T19:39:04.484Z,15.05
2023-01-29T19:42:10.786Z,15.27
2023-01-29T19:45:13.507Z,18.17
2023-01-29T19:48:26.482Z,14.73
2023-01-29T19:51:29.297Z,14.57
2023-01-29T19:54:37.055Z,14.90
2023-01-29T19:57:40.342Z,14.18
2023-01-29T20:00:42.645Z,14.70
2023-01-29T20:03:48.472Z,15.37
2023-01-29T20:06:50.832Z,15.48
2023-01-29T20:09:54.377Z,15.20
2023-01-29T20:12:56.783Z,15.05
2023-01-29T20:16:03.224Z,16.92
2023-01-29T20:19:14.398Z,16.23
2023-01-29T20:22:17.687Z,15.43
2023-01-29T20:25:20.191Z,14.00
2023-01-29T20:28:22.645Z,18.00
2023-01-29T20:31:25.172Z,14.68
2023-01-29T20:34:27.203Z,12.00
2023-01-29T20:37:29.163Z,17.88
2023-01-29T20:40:31.571Z,11.85
2023-01-29T20:43:34.675Z,18.45
2023-01-29T20:46:40.853Z,16.92
2023-01-29T20:49:43.712Z,13.70
2023-01-29T20:52:46.384Z,14.70
2023-01-29T20:55:49.054Z,16.38
2023-01-29T20:58:52.017Z,20.80
2023-01-29T21:02:06.388Z,15.27
2023-01-29T21:05:09.062Z,17.53
2023-01-29T21:08:12.147Z,16.73
2023-01-29T21:11:14.700Z,15.45
2023-01-29T21:14:17.081Z,14.32
2023-01-29T21:17:19.532Z,15.60
2023-01-29T21:20:22.041Z,16.40
2023-01-29T21:23:24.726Z,17.20
2023-01-29T21:26:27.480Z,17.58
2023-01-29T21:29:29.727Z,12.75
2023-01-29T21:32:32.671Z,19.38
2023-01-29T21:35:37.111Z,18.67
2023-01-29T21:38:40.366Z,16.20
2023-01-29T21:42:02.596Z,15.90
2023-01-29T21:45:05.325Z,20.58
2023-01-29T21:48:09.209Z,16.70
2023-01-29T21:51:11.379Z,13.37
2023-01-29T21:54:15.473Z,19.80
2023-01-29T21:57:20.380Z,18.88
2023-01-29T22:00:22.547Z,17.92
2023-01-29T22:03:24.891Z,17.75
2023-01-29T22:06:27.049Z,18.07
2023-01-29T22:09:32.741Z,13.30
2023-01-29T22:12:38.216Z,12.98
2023-01-29T22:15:42.729Z,18.02
2023-01-29T22:18:45.046Z,19.40
2023-01-29T22:21:47.235Z,22.40
2023-01-29T22:24:50.925Z,21.38
2023-01-29T22:27:53.604Z,15.40
2023-01-29T22:31:05.209Z,13.43
2023-01-29T22:34:07.561Z,14.50
2023-01-29T22:37:09.927Z,12.67
2023-01-29T22:40:13.175Z,16.85
2023-01-29T22:43:22.894Z,15.30
2023-01-29T22:46:25.484Z,20.02
2023-01-29T22:49:31.955Z,19.92
2023-01-29T22:52:38.505Z,15.20
2023-01-29T22:55:46.977Z,18.92
2023-01-29T22:58:56.587Z,18.02
2023-01-29T23:01:59.925Z,21.42
2023-01-29T23:05:01.969Z,19.77
2023-01-29T23:08:03.859Z,19.67
2023-01-29T23:11:17.895Z,17.23
2023-01-29T23:14:21.485Z,17.42
2023-01-29T23:17:25.993Z,15.73
2023-01-29T23:20:31.917Z,19.15
2023-01-29T23:23:36.034Z,18.33
2023-01-29T23:26:57.226Z,18.13
2023-01-29T23:29:59.938Z,17.00
2023-01-29T23:33:03.198Z,19.88
2023-01-29T23:36:07.663Z,20.58
2023-01-29T23:39:10.233Z,22.80
2023-01-29T23:42:13.154Z,20.23
2023-01-29T23:45:15.360Z,23.23
2023-01-29T23:48:17.929Z,20.75
2023-01-29T23:51:23.713Z,20.85
2023-01-29T23:54:26.832Z,21.70
2023-01-29T23:57:29.372Z,21.95
